Данилово

Карта отелей и гостиниц, располагающихся рядом с аэропортом Данилово :

Данилово
Йошкар-Ола
Марий Эл 56° 39' 34.2" N, 48° 1' 57.9" E
Данилово
Йошкар-Ола
Марий Эл 56° 39' 34.2" N, 48° 1' 57.9" E
Код аэродрома ИКАО
XWKD
Код аэродрома RU
ЬВКД
Координаты
N56.65950° E048.03275°
Превышение над уровнем моря
127
Основная полоса
16/34
Курс магнитный
162/342
Длина основной ВПП
2350
Ширина основной ВПП
40
Покрытие основной ВПП
Твёрдое
Освещение ВПП
Постоянное
Тип: 
Аэродром
Класс аэродрома: 
Принадлежность: 
ФСБ
Статус: 
Действующий
Сайт: 
E-mail аэродрома: 
Страна: 
Россия
Регион: 
Марий Эл
Город: 
Йошкар-Ола
Дополнительная информация: 
Оператор: ФСБ России. Нкр.=(500)м, ВС до 200 т. Ранее принадлежал МО, базировался 681-й ИАП 28-й дивизии 4-й отдельной армии ПВО. На вооружении состояли в разные годы истребители МиГ-15, Як-25, Су-9, Су-15, МиГ-23П. Гражданский индекс UWKO / УВКО.

Найти трансфер

С помощью этой формы Вы можете найти трансфер из аэропорта Данилово в город, аэропорт или вокзал:

Карта места

Javascript is required to view this map.

Погода в аэропортах:

Авиационная погода в Елизово

Регион: 
Погода METAR: 
UHPP 170900Z 29010G15MPS 6000 -SHSN DRSN OVC031CB M04/M06 Q0983 R34L/350135 NOSIG RMK QFE734/0979
Время наблюдения
2021-01-17T09:00:00Z
Температура C
-4.0
Точка росы
-6.0
Направление ветра
290
Скорость ветра (узлы)
19
Метео видимость
3.73
Явления погоды
-SHSN DRSN
Условия полета
MVFR
Аэропорт подробнее: 

Авиационная погода в Гомеле

Регион: 
Погода METAR: 
UMGG 170900Z 33004MPS 6000 -SHSN OVC045CB M16/M19 Q1014 R28/450535 NOSIG
Время наблюдения
2021-01-17T09:00:00Z
Температура C
-16.0
Точка росы
-19.0
Направление ветра
330
Скорость ветра (узлы)
8
Метео видимость
3.73
Явления погоды
-SHSN
Условия полета
MVFR
Аэропорт подробнее: 

Авиационная погода в Ульяновске

Регион: 
Погода METAR: 
UWLW 170900Z 26007MPS 8000 DRSN NSC M15/M19 Q1008 R20/820650 NOSIG RMK QFE751
Время наблюдения
2021-01-17T09:00:00Z
Температура C
-15.0
Точка росы
-19.0
Направление ветра
260
Скорость ветра (узлы)
14
Метео видимость
4.97
Явления погоды
DRSN
Условия полета
MVFR
Аэропорт подробнее: 

Авиационная погода в Магнитогорске

Погода METAR: 
USCM 170900Z 23008MPS 9000 BLSN NSC M10/M15 Q1002 R18/820247 TEMPO 23017MPS 1000 BLSN VV003 RMK QFE715
Время наблюдения
2021-01-17T09:00:00Z
Температура C
-10.0
Точка росы
-15.0
Направление ветра
230
Скорость ветра (узлы)
16
Метео видимость
5.59
Явления погоды
BLSN
Условия полета
VFR
Аэропорт подробнее: